createdAt,value
2022-10-08T00:03:29.016Z,97341.00
2022-10-08T00:08:36.144Z,97346.00
2022-10-08T00:13:41.535Z,97350.00
2022-10-08T00:18:44.662Z,97344.00
2022-10-08T00:23:47.317Z,97347.00
2022-10-08T00:28:48.616Z,97351.00
2022-10-08T00:33:54.818Z,97340.00
2022-10-08T00:39:00.080Z,97344.00
2022-10-08T00:44:03.394Z,97334.00
2022-10-08T00:49:24.914Z,97319.00
2022-10-08T00:54:25.710Z,97313.00
2022-10-08T00:59:28.359Z,97321.00
2022-10-08T01:04:29.368Z,97331.00
2022-10-08T01:09:41.511Z,97333.00
2022-10-08T01:19:11.669Z,97331.00
2022-10-08T01:24:55.542Z,97329.00
2022-10-08T01:30:00.995Z,97328.00
2022-10-08T01:35:10.459Z,97342.00
2022-10-08T01:40:21.776Z,97334.00
2022-10-08T01:45:28.159Z,97325.00
2022-10-08T01:50:37.737Z,97324.00
2022-10-08T01:55:43.449Z,97317.00
2022-10-08T02:00:47.960Z,97319.00
2022-10-08T02:05:53.787Z,97316.00
2022-10-08T02:10:54.611Z,97324.00
2022-10-08T02:16:20.203Z,97331.00
2022-10-08T02:21:26.143Z,97332.00
2022-10-08T02:26:33.854Z,97322.00
2022-10-08T02:31:41.763Z,97312.00
2022-10-08T02:36:48.147Z,97314.00
2022-10-08T02:41:55.130Z,97319.00
2022-10-08T02:46:59.948Z,97310.00
2022-10-08T02:52:02.357Z,97311.00
2022-10-08T02:57:16.351Z,97310.00
2022-10-08T03:02:29.152Z,97318.00
2022-10-08T03:07:32.169Z,97318.00
2022-10-08T03:12:33.397Z,97331.00
2022-10-08T03:17:41.431Z,97333.00
2022-10-08T03:22:42.548Z,97322.00
2022-10-08T03:27:43.380Z,97332.00
2022-10-08T03:32:44.568Z,97335.00
2022-10-08T03:37:45.535Z,97327.00
2022-10-08T03:42:46.557Z,97337.00
2022-10-08T03:47:51.936Z,97350.00
2022-10-08T03:52:52.686Z,97352.00
2022-10-08T03:57:53.529Z,97353.00
2022-10-08T04:02:54.384Z,97348.00
2022-10-08T04:07:55.258Z,97351.00
2022-10-08T04:12:55.979Z,97366.00
2022-10-08T04:17:56.765Z,97359.00
2022-10-08T04:22:57.485Z,97361.00
2022-10-08T04:27:58.337Z,97371.00
2022-10-08T04:32:59.053Z,97358.00
2022-10-08T04:38:00.257Z,97348.00
2022-10-08T04:43:00.964Z,97352.00
2022-10-08T04:48:02.157Z,97357.00
2022-10-08T04:53:03.781Z,97361.00
2022-10-08T04:58:04.639Z,97363.00
2022-10-08T05:03:05.464Z,97372.00
2022-10-08T05:08:07.132Z,97377.00
2022-10-08T05:13:07.878Z,97377.00
2022-10-08T05:18:08.632Z,97375.00
2022-10-08T05:23:09.642Z,97386.00
2022-10-08T05:28:10.573Z,97385.00
2022-10-08T05:33:11.461Z,97387.00
2022-10-08T05:38:12.220Z,97386.00
2022-10-08T05:43:13.149Z,97397.00
2022-10-08T05:48:14.194Z,97401.00
2022-10-08T05:53:14.925Z,97408.00
2022-10-08T05:58:15.815Z,97404.00
2022-10-08T06:03:16.595Z,97407.00
2022-10-08T06:08:17.464Z,97403.00
2022-10-08T06:13:22.274Z,97405.00
2022-10-08T06:18:24.557Z,97425.00
2022-10-08T06:23:25.499Z,97431.00
2022-10-08T06:28:26.427Z,97429.00
2022-10-08T06:33:27.747Z,97433.00
2022-10-08T06:38:28.777Z,97440.00
2022-10-08T06:43:29.562Z,97444.00
2022-10-08T06:48:30.536Z,97443.00
2022-10-08T06:53:33.186Z,97449.00
2022-10-08T06:58:34.758Z,97444.00
2022-10-08T07:03:36.211Z,97444.00
2022-10-08T07:08:38.201Z,97447.00
2022-10-08T07:13:39.541Z,97454.00
2022-10-08T07:18:41.431Z,97457.00
2022-10-08T07:23:42.188Z,97468.00
2022-10-08T07:28:49.085Z,97470.00
2022-10-08T07:33:50.553Z,97468.00
2022-10-08T07:38:57.217Z,97474.00
2022-10-08T07:44:00.249Z,97490.00
2022-10-08T07:49:02.687Z,97491.00
2022-10-08T07:54:07.109Z,97500.00
2022-10-08T07:59:08.293Z,97495.00
2022-10-08T08:04:10.307Z,97501.00
2022-10-08T08:09:13.618Z,97508.00
2022-10-08T08:14:14.450Z,97502.00
2022-10-08T08:19:15.315Z,97504.00
2022-10-08T08:24:16.195Z,97518.00
2022-10-08T08:29:18.144Z,97527.00
2022-10-08T08:34:21.760Z,97544.00
2022-10-08T08:39:24.817Z,97537.00
2022-10-08T08:44:43.252Z,97544.00
2022-10-08T08:49:57.682Z,97556.00
2022-10-08T08:55:00.265Z,97557.00
2022-10-08T09:00:14.238Z,97564.00
2022-10-08T09:05:16.877Z,97572.00
2022-10-08T09:10:23.288Z,97576.00
2022-10-08T09:15:32.068Z,97581.00
2022-10-08T09:20:39.294Z,97591.00
2022-10-08T09:25:42.793Z,97584.00
2022-10-08T09:30:44.181Z,97601.00
2022-10-08T09:35:50.658Z,97605.00
2022-10-08T09:41:16.344Z,97629.00
2022-10-08T09:46:31.964Z,97632.00
2022-10-08T09:51:33.703Z,97623.00
2022-10-08T09:56:34.966Z,97623.00
2022-10-08T10:01:44.611Z,97637.00
2022-10-08T10:06:47.656Z,97638.00
2022-10-08T10:11:56.668Z,97634.00
2022-10-08T10:17:07.708Z,97647.00
2022-10-08T10:22:14.487Z,97655.00
2022-10-08T10:27:41.580Z,97647.00
2022-10-08T10:33:13.025Z,97652.00
2022-10-08T10:38:22.033Z,97648.00
2022-10-08T10:43:42.702Z,97653.00
2022-10-08T10:48:43.466Z,97671.00
2022-10-08T10:54:24.332Z,97664.00
2022-10-08T10:59:45.903Z,97669.00
2022-10-08T11:05:11.230Z,97674.00
2022-10-08T11:11:57.363Z,97674.00
2022-10-08T11:17:35.706Z,97673.00
2022-10-08T11:22:48.490Z,97671.00
2022-10-08T11:28:17.292Z,97679.00
2022-10-08T11:33:19.112Z,97675.00
2022-10-08T11:38:30.937Z,97672.00
2022-10-08T11:43:46.631Z,97674.00
2022-10-08T11:48:49.245Z,97676.00
2022-10-08T11:54:53.005Z,97679.00
2022-10-08T12:00:08.618Z,97676.00
2022-10-08T12:05:34.999Z,97680.00
2022-10-08T12:10:38.227Z,97669.00
2022-10-08T12:15:49.065Z,97666.00
2022-10-08T12:21:42.393Z,97678.00
2022-10-08T12:27:20.709Z,97667.00
2022-10-08T12:32:51.842Z,97670.00
2022-10-08T12:39:45.178Z,97660.00
2022-10-08T12:45:39.453Z,97658.00
2022-10-08T12:57:33.996Z,97663.00
2022-10-08T13:02:42.202Z,97673.00
2022-10-08T13:07:43.265Z,97673.00
2022-10-08T13:12:57.951Z,97673.00
2022-10-08T13:18:10.800Z,97669.00
2022-10-08T13:23:45.093Z,97662.00
2022-10-08T13:28:59.736Z,97657.00
2022-10-08T13:34:03.319Z,97662.00
2022-10-08T13:39:04.663Z,97666.00
2022-10-08T13:44:05.824Z,97667.00
2022-10-08T13:49:24.451Z,97664.00
2022-10-08T13:54:28.163Z,97665.00
2022-10-08T13:59:30.801Z,97657.00
2022-10-08T14:04:32.423Z,97651.00
2022-10-08T14:09:33.227Z,97653.00
2022-10-08T14:14:34.175Z,97657.00
2022-10-08T14:19:35.099Z,97668.00
2022-10-08T14:24:35.954Z,97664.00
2022-10-08T14:29:36.712Z,97660.00
2022-10-08T14:34:38.313Z,97663.00
2022-10-08T14:39:39.058Z,97660.00
2022-10-08T14:44:39.817Z,97660.00
2022-10-08T14:49:41.056Z,97658.00
2022-10-08T14:54:42.033Z,97664.00
2022-10-08T14:59:42.754Z,97667.00
2022-10-08T15:04:43.806Z,97667.00
2022-10-08T15:09:44.711Z,97663.00
2022-10-08T15:14:45.511Z,97667.00
2022-10-08T15:19:46.322Z,97672.00
2022-10-08T15:24:47.069Z,97670.00
2022-10-08T15:29:47.963Z,97666.00
2022-10-08T15:34:48.777Z,97675.00
2022-10-08T15:39:49.775Z,97668.00
2022-10-08T15:44:50.651Z,97670.00
2022-10-08T15:49:51.783Z,97677.00
2022-10-08T15:54:52.760Z,97682.00
2022-10-08T15:59:54.843Z,97692.00
2022-10-08T16:04:58.032Z,97694.00
2022-10-08T16:09:59.330Z,97695.00
2022-10-08T16:15:00.056Z,97698.00
2022-10-08T16:20:01.479Z,97701.00
2022-10-08T16:25:02.490Z,97703.00
2022-10-08T16:30:04.252Z,97707.00
2022-10-08T16:35:05.898Z,97718.00
2022-10-08T16:40:07.855Z,97726.00
2022-10-08T16:45:09.658Z,97737.00
2022-10-08T16:50:10.541Z,97737.00
2022-10-08T16:55:11.295Z,97757.00
2022-10-08T17:00:13.208Z,97765.00
2022-10-08T17:05:16.266Z,97774.00
2022-10-08T17:10:17.030Z,97766.00
2022-10-08T17:15:17.802Z,97779.00
2022-10-08T17:20:18.883Z,97792.00
2022-10-08T17:25:19.921Z,97804.00
2022-10-08T17:30:20.688Z,97816.00
2022-10-08T17:35:21.492Z,97822.00
2022-10-08T17:40:22.793Z,97836.00
2022-10-08T17:45:23.680Z,97838.00
2022-10-08T17:50:25.457Z,97842.00
2022-10-08T17:55:26.230Z,97854.00
2022-10-08T18:00:27.310Z,97853.00
2022-10-08T18:05:28.092Z,97859.00
2022-10-08T18:10:29.235Z,97873.00
2022-10-08T18:15:30.017Z,97880.00
2022-10-08T18:20:31.169Z,97876.00
2022-10-08T18:25:31.912Z,97889.00
2022-10-08T18:30:35.672Z,97884.00
2022-10-08T18:35:36.415Z,97885.00
2022-10-08T18:40:37.251Z,97890.00
2022-10-08T18:45:38.366Z,97899.00
2022-10-08T18:50:39.326Z,97904.00
2022-10-08T18:55:47.618Z,97902.00
2022-10-08T19:00:48.500Z,97904.00
2022-10-08T19:05:49.686Z,97910.00
2022-10-08T19:10:50.734Z,97914.00
2022-10-08T19:15:51.890Z,97914.00
2022-10-08T19:20:52.730Z,97922.00
2022-10-08T19:25:53.597Z,97925.00
2022-10-08T19:30:54.380Z,97923.00
2022-10-08T19:36:00.313Z,97927.00
2022-10-08T19:41:06.789Z,97937.00
2022-10-08T19:46:07.608Z,97937.00
2022-10-08T19:51:10.579Z,97944.00
2022-10-08T19:56:12.184Z,97947.00
2022-10-08T20:01:15.574Z,97951.00
2022-10-08T20:06:24.029Z,97954.00
2022-10-08T20:11:26.351Z,97971.00
2022-10-08T20:16:33.694Z,97972.00
2022-10-08T20:21:37.087Z,97967.00
2022-10-08T20:26:38.883Z,97974.00
2022-10-08T20:31:42.793Z,97967.00
2022-10-08T20:36:45.386Z,97968.00
2022-10-08T20:41:46.480Z,97978.00
2022-10-08T20:46:49.110Z,97968.00
2022-10-08T20:51:50.104Z,97974.00
2022-10-08T20:56:50.875Z,97974.00
2022-10-08T21:01:51.971Z,97977.00
2022-10-08T21:06:52.832Z,97978.00
2022-10-08T21:11:54.506Z,97988.00
2022-10-08T21:16:55.355Z,97984.00
2022-10-08T21:21:56.979Z,97981.00
2022-10-08T21:26:57.705Z,97984.00
2022-10-08T21:31:58.561Z,97979.00
2022-10-08T21:36:59.309Z,97982.00
2022-10-08T21:42:00.099Z,97996.00
2022-10-08T21:47:01.129Z,97990.00
2022-10-08T21:52:02.035Z,97991.00
2022-10-08T21:57:02.939Z,97981.00
2022-10-08T22:02:03.770Z,97985.00
2022-10-08T22:07:04.730Z,97995.00
2022-10-08T22:12:05.500Z,98005.00
2022-10-08T22:17:06.242Z,97995.00
2022-10-08T22:22:07.335Z,97998.00
2022-10-08T22:27:08.079Z,97998.00
2022-10-08T22:32:08.850Z,98003.00
2022-10-08T22:37:09.570Z,97991.00
2022-10-08T22:42:10.342Z,97989.00
2022-10-08T22:47:11.133Z,97985.00
2022-10-08T22:52:12.007Z,97988.00
2022-10-08T22:57:12.756Z,97976.00
2022-10-08T23:02:13.590Z,97987.00
2022-10-08T23:07:14.407Z,97995.00
2022-10-08T23:12:15.195Z,97995.00
2022-10-08T23:17:15.960Z,97988.00
2022-10-08T23:22:17.111Z,97985.00
2022-10-08T23:27:17.828Z,97980.00
2022-10-08T23:32:18.636Z,97980.00
2022-10-08T23:37:19.371Z,97969.00
2022-10-08T23:42:20.153Z,97972.00
2022-10-08T23:47:20.866Z,97975.00
2022-10-08T23:52:21.708Z,97982.00
2022-10-08T23:57:22.471Z,97982.00
